createdAt,value
2017-01-03T00:00:28.690Z,0
2017-01-03T00:01:38.979Z,0
2017-01-03T00:02:48.888Z,0
2017-01-03T00:03:59.205Z,0
2017-01-03T00:05:09.908Z,0
2017-01-03T00:06:20.608Z,0
2017-01-03T00:07:30.900Z,0
2017-01-03T00:08:41.593Z,0
2017-01-03T00:09:52.307Z,0
2017-01-03T00:11:02.606Z,0
2017-01-03T00:12:13.299Z,0
2017-01-03T00:13:23.209Z,0
2017-01-03T00:14:33.114Z,0
2017-01-03T00:15:42.224Z,0
2017-01-03T00:16:52.547Z,0
2017-01-03T00:18:02.456Z,0
2017-01-03T00:19:12.766Z,0
2017-01-03T00:20:23.072Z,0
2017-01-03T00:21:33.771Z,0
2017-01-03T00:22:44.464Z,0
2017-01-03T00:23:54.767Z,0
2017-01-03T00:25:05.116Z,0
2017-01-03T00:26:15.424Z,0
2017-01-03T00:27:25.331Z,0
2017-01-03T00:28:35.651Z,0
2017-01-03T00:29:46.361Z,0
2017-01-03T00:30:56.652Z,0
2017-01-03T00:32:06.182Z,0
2017-01-03T00:33:16.092Z,0
2017-01-03T00:34:26.790Z,0
2017-01-03T00:35:37.486Z,0
2017-01-03T00:36:48.204Z,0
2017-01-03T00:37:58.905Z,0
2017-01-03T00:39:09.192Z,0
2017-01-03T00:40:19.515Z,0
2017-01-03T00:41:29.431Z,0
2017-01-03T00:42:39.758Z,0
2017-01-03T00:43:49.660Z,0
2017-01-03T00:44:59.977Z,0
2017-01-03T00:46:09.887Z,0
2017-01-03T00:47:19.831Z,0
2017-01-03T00:48:29.733Z,0
2017-01-03T00:49:40.038Z,0
2017-01-03T00:50:50.345Z,0
2017-01-03T00:52:00.632Z,0
2017-01-03T00:53:10.546Z,0
2017-01-03T00:54:20.477Z,0
2017-01-03T00:55:29.987Z,0
2017-01-03T00:56:40.695Z,0
2017-01-03T00:57:51.007Z,0
2017-01-03T00:59:00.909Z,0
2017-01-03T01:00:11.211Z,0
2017-01-03T01:01:20.715Z,0
2017-01-03T01:02:30.650Z,0
2017-01-03T01:03:40.943Z,0
2017-01-03T01:04:50.858Z,0
2017-01-03T01:06:00.376Z,0
2017-01-03T01:07:11.091Z,0
2017-01-03T01:08:21.408Z,0
2017-01-03T01:09:32.141Z,0
2017-01-03T01:10:42.858Z,0
2017-01-03T01:11:53.549Z,0
2017-01-03T01:13:03.841Z,0
2017-01-03T01:14:14.141Z,0
2017-01-03T01:15:24.048Z,0
2017-01-03T01:16:33.959Z,0
2017-01-03T01:17:44.660Z,0
2017-01-03T01:18:54.170Z,0
2017-01-03T01:20:04.852Z,0
2017-01-03T01:21:15.542Z,0
2017-01-03T01:22:25.835Z,0
2017-01-03T01:23:35.746Z,0
2017-01-03T01:24:46.083Z,0
2017-01-03T01:25:55.978Z,0
2017-01-03T01:27:06.277Z,0
2017-01-03T01:28:16.575Z,0
2017-01-03T01:29:27.258Z,0
2017-01-03T01:30:37.186Z,0
2017-01-03T01:31:47.090Z,0
2017-01-03T01:32:57.015Z,0
2017-01-03T01:34:07.705Z,0
2017-01-03T01:35:18.617Z,0
2017-01-03T01:36:28.909Z,0
2017-01-03T01:37:38.421Z,0
2017-01-03T01:38:47.930Z,0
2017-01-03T01:39:58.226Z,0
2017-01-03T01:41:08.528Z,0
2017-01-03T01:42:19.219Z,0
2017-01-03T01:43:29.917Z,0
2017-01-03T01:44:39.938Z,0
2017-01-03T01:45:50.239Z,0
2017-01-03T01:46:59.350Z,0
2017-01-03T01:48:09.654Z,0
2017-01-03T01:49:19.972Z,0
2017-01-03T01:50:29.880Z,0
2017-01-03T01:51:40.592Z,0
2017-01-03T01:52:51.288Z,0
2017-01-03T01:54:01.578Z,0
2017-01-03T01:55:11.883Z,0
2017-01-03T01:56:22.179Z,0
2017-01-03T01:57:32.917Z,0
2017-01-03T01:58:43.228Z,0
2017-01-03T01:59:53.532Z,0
2017-01-03T02:01:03.819Z,0
2017-01-03T02:02:14.507Z,0
2017-01-03T02:03:24.821Z,0
2017-01-03T02:04:35.515Z,0
2017-01-03T02:05:45.423Z,0
2017-01-03T02:06:55.730Z,0
2017-01-03T02:08:06.040Z,0
2017-01-03T02:09:16.339Z,0
2017-01-03T02:10:26.240Z,0
2017-01-03T02:11:36.526Z,0
2017-01-03T02:12:46.429Z,0
2017-01-03T02:13:56.715Z,0
2017-01-03T02:15:07.013Z,0
2017-01-03T02:16:17.316Z,0
2017-01-03T02:17:27.221Z,0
2017-01-03T02:18:36.730Z,0
2017-01-03T02:19:47.421Z,0
2017-01-03T02:20:57.343Z,0
2017-01-03T02:22:07.654Z,0
2017-01-03T02:23:17.562Z,0
2017-01-03T02:24:27.461Z,0
2017-01-03T02:25:37.758Z,0
2017-01-03T02:26:47.665Z,0
2017-01-03T02:27:58.380Z,0
2017-01-03T02:29:08.296Z,0
2017-01-03T02:30:18.186Z,0
2017-01-03T02:31:28.503Z,0
2017-01-03T02:32:38.798Z,0
2017-01-03T02:33:49.101Z,0
2017-01-03T02:34:59.791Z,0
2017-01-03T02:36:09.299Z,0
2017-01-03T02:37:19.198Z,0
2017-01-03T02:38:29.102Z,0
2017-01-03T02:39:39.002Z,0
2017-01-03T02:40:49.307Z,0
2017-01-03T02:41:58.819Z,0
2017-01-03T02:43:09.561Z,0
2017-01-03T02:44:20.249Z,0
2017-01-03T02:45:29.774Z,0
2017-01-03T02:46:40.086Z,0
2017-01-03T02:47:50.381Z,0
2017-01-03T02:49:00.669Z,0
2017-01-03T02:50:10.171Z,0
2017-01-03T02:51:20.850Z,0
2017-01-03T02:52:30.750Z,0
2017-01-03T02:53:41.027Z,0
2017-01-03T02:54:50.941Z,0
2017-01-03T02:56:01.243Z,0
2017-01-03T02:57:11.529Z,0
2017-01-03T02:58:21.441Z,0
2017-01-03T02:59:30.948Z,0
2017-01-03T03:00:41.275Z,0
2017-01-03T03:01:51.582Z,0
2017-01-03T03:03:01.485Z,0
2017-01-03T03:04:10.998Z,0
2017-01-03T03:05:21.305Z,0
2017-01-03T03:06:31.209Z,0
2017-01-03T03:07:41.900Z,0
2017-01-03T03:08:51.808Z,0
2017-01-03T03:10:02.103Z,0
2017-01-03T03:11:12.421Z,0
2017-01-03T03:12:22.712Z,0
2017-01-03T03:13:33.394Z,0
2017-01-03T03:14:43.893Z,0
2017-01-03T03:15:53.406Z,0
2017-01-03T03:17:02.905Z,0
2017-01-03T03:18:12.818Z,0
2017-01-03T03:19:21.928Z,0
2017-01-03T03:20:31.832Z,0
2017-01-03T03:21:41.754Z,0
2017-01-03T03:22:52.061Z,0
2017-01-03T03:24:02.360Z,0
2017-01-03T03:25:11.877Z,0
2017-01-03T03:26:21.785Z,0
2017-01-03T03:27:31.688Z,0
2017-01-03T03:28:41.618Z,0
2017-01-03T03:29:51.579Z,0
2017-01-03T03:31:01.091Z,0
2017-01-03T03:32:10.368Z,0
2017-01-03T03:33:20.266Z,0
2017-01-03T03:34:30.563Z,0
2017-01-03T03:35:40.865Z,0
2017-01-03T03:36:50.782Z,0
2017-01-03T03:38:01.464Z,0
2017-01-03T03:39:12.149Z,0
2017-01-03T03:40:22.479Z,0
2017-01-03T03:41:32.789Z,0
2017-01-03T03:42:42.693Z,0
2017-01-03T03:43:53.003Z,0
2017-01-03T03:45:02.893Z,0
2017-01-03T03:46:13.193Z,0
2017-01-03T03:47:22.695Z,0
2017-01-03T03:48:33.395Z,0
2017-01-03T03:49:43.300Z,0
2017-01-03T03:50:52.804Z,0
2017-01-03T03:52:02.704Z,0
2017-01-03T03:53:12.212Z,0
2017-01-03T03:54:21.724Z,0
2017-01-03T03:55:32.417Z,0
2017-01-03T03:56:42.732Z,0
2017-01-03T03:57:53.433Z,0
2017-01-03T03:59:03.336Z,0
2017-01-03T04:00:13.268Z,0
2017-01-03T04:01:23.173Z,0
2017-01-03T04:02:33.866Z,0
2017-01-03T04:03:44.177Z,0
2017-01-03T04:04:54.865Z,0
2017-01-03T04:06:05.166Z,0
2017-01-03T04:07:15.084Z,0
2017-01-03T04:08:25.378Z,0
2017-01-03T04:09:34.913Z,0
2017-01-03T04:10:45.614Z,0
2017-01-03T04:11:56.304Z,0
2017-01-03T04:13:06.638Z,0
2017-01-03T04:14:16.530Z,0
2017-01-03T04:15:26.845Z,0
2017-01-03T04:16:37.145Z,0
2017-01-03T04:17:47.447Z,0
2017-01-03T04:18:57.751Z,0
2017-01-03T04:20:07.658Z,0
2017-01-03T04:21:17.564Z,0
2017-01-03T04:22:27.492Z,0
2017-01-03T04:23:38.177Z,0
2017-01-03T04:24:48.075Z,0
2017-01-03T04:25:58.368Z,0
2017-01-03T04:27:07.879Z,0
2017-01-03T04:28:17.788Z,0
2017-01-03T04:29:28.079Z,0
2017-01-03T04:30:37.975Z,0
2017-01-03T04:31:47.877Z,0
2017-01-03T04:32:58.179Z,0
2017-01-03T04:34:09.129Z,0
2017-01-03T04:35:19.048Z,0
2017-01-03T04:36:27.772Z,0
2017-01-03T04:37:37.673Z,0
2017-01-03T04:38:47.569Z,0
2017-01-03T04:39:57.069Z,0
2017-01-03T04:41:07.742Z,0
2017-01-03T04:42:17.112Z,0
2017-01-03T04:43:27.807Z,0
2017-01-03T04:44:38.515Z,0
2017-01-03T04:45:48.818Z,0
2017-01-03T04:46:58.723Z,0
2017-01-03T04:48:09.033Z,0
2017-01-03T04:49:18.945Z,0
2017-01-03T04:50:28.454Z,0
2017-01-03T04:51:38.377Z,0
2017-01-03T04:52:48.680Z,0
2017-01-03T04:53:59.363Z,0
2017-01-03T04:55:09.282Z,0
2017-01-03T04:56:19.208Z,0
2017-01-03T04:57:29.499Z,0
2017-01-03T04:58:39.391Z,0
2017-01-03T04:59:49.686Z,0
2017-01-03T05:00:59.598Z,0
2017-01-03T05:02:08.721Z,0
2017-01-03T05:03:18.609Z,0
2017-01-03T05:04:29.312Z,0
2017-01-03T05:05:39.215Z,0
2017-01-03T05:06:49.915Z,0
2017-01-03T05:08:00.617Z,0
2017-01-03T05:09:10.905Z,0
2017-01-03T05:10:21.599Z,0
2017-01-03T05:11:31.507Z,0
2017-01-03T05:12:41.408Z,0
2017-01-03T05:13:52.099Z,0
2017-01-03T05:15:02.440Z,0
2017-01-03T05:16:13.123Z,0
2017-01-03T05:17:23.414Z,0
2017-01-03T05:18:33.720Z,0
2017-01-03T05:19:44.401Z,0
2017-01-03T05:20:54.302Z,0
2017-01-03T05:22:04.609Z,0
2017-01-03T05:23:15.319Z,0
2017-01-03T05:24:25.609Z,0
2017-01-03T05:25:35.123Z,0
2017-01-03T05:26:45.440Z,0
2017-01-03T05:27:55.346Z,0
2017-01-03T05:29:05.658Z,0
2017-01-03T05:30:15.568Z,0
2017-01-03T05:31:25.472Z,0
2017-01-03T05:32:34.988Z,0
2017-01-03T05:33:45.237Z,0
2017-01-03T05:34:55.926Z,0
2017-01-03T05:36:06.628Z,0
2017-01-03T05:37:16.925Z,0
2017-01-03T05:38:27.228Z,0
2017-01-03T05:39:37.129Z,0
2017-01-03T05:40:46.649Z,0
2017-01-03T05:41:56.951Z,0
2017-01-03T05:43:07.248Z,0
2017-01-03T05:44:17.548Z,0
2017-01-03T05:45:27.861Z,0
2017-01-03T05:46:38.165Z,0
2017-01-03T05:47:47.670Z,0
2017-01-03T05:48:57.585Z,0
2017-01-03T05:50:07.487Z,0
2017-01-03T05:51:17.004Z,0
2017-01-03T05:52:26.896Z,0
2017-01-03T05:53:36.807Z,0
2017-01-03T05:54:47.098Z,0
2017-01-03T05:55:57.000Z,0
2017-01-03T05:57:06.512Z,0
2017-01-03T05:58:17.189Z,0
2017-01-03T05:59:26.740Z,0
2017-01-03T06:00:37.032Z,0
2017-01-03T06:01:47.339Z,0
2017-01-03T06:02:57.643Z,0
2017-01-03T06:04:07.543Z,0
2017-01-03T06:05:17.064Z,0
2017-01-03T06:06:27.788Z,0
2017-01-03T06:07:38.116Z,0
2017-01-03T06:08:48.023Z,0
2017-01-03T06:09:57.920Z,0
2017-01-03T06:11:07.844Z,0
2017-01-03T06:12:17.751Z,0
2017-01-03T06:13:27.722Z,0
2017-01-03T06:14:38.421Z,0
2017-01-03T06:15:48.728Z,0
2017-01-03T06:16:58.233Z,0
2017-01-03T06:18:08.536Z,0
2017-01-03T06:19:18.435Z,0
2017-01-03T06:20:28.747Z,0
2017-01-03T06:21:38.644Z,0
2017-01-03T06:22:48.548Z,0
2017-01-03T06:23:58.842Z,0
2017-01-03T06:25:09.134Z,0
2017-01-03T06:26:18.276Z,0
2017-01-03T06:27:28.977Z,0
2017-01-03T06:28:39.280Z,0
2017-01-03T06:29:49.974Z,0
2017-01-03T06:30:59.875Z,0
2017-01-03T06:32:10.186Z,0
2017-01-03T06:33:20.478Z,0
2017-01-03T06:34:30.377Z,0
2017-01-03T06:35:40.692Z,0
2017-01-03T06:36:50.996Z,0
2017-01-03T06:38:01.344Z,0
2017-01-03T06:39:11.637Z,0
2017-01-03T06:40:21.543Z,0
2017-01-03T06:41:31.902Z,0
2017-01-03T06:42:41.409Z,0
2017-01-03T06:43:50.528Z,0
2017-01-03T06:45:01.219Z,0
2017-01-03T06:46:11.131Z,0
2017-01-03T06:47:21.829Z,0
2017-01-03T06:48:31.730Z,0
2017-01-03T06:49:40.838Z,0
2017-01-03T06:50:49.977Z,0
2017-01-03T06:52:00.275Z,0
2017-01-03T06:53:09.387Z,0
2017-01-03T06:54:19.681Z,0
2017-01-03T06:55:29.591Z,4
2017-01-03T06:56:39.491Z,4
2017-01-03T06:57:50.185Z,4
2017-01-03T06:59:00.870Z,4
2017-01-03T07:00:10.781Z,0
2017-01-03T07:01:21.078Z,0
2017-01-03T07:02:30.197Z,4
2017-01-03T07:03:39.723Z,4
2017-01-03T07:04:50.426Z,8
2017-01-03T07:06:00.336Z,4
2017-01-03T07:07:10.632Z,8
2017-01-03T07:08:20.541Z,8
2017-01-03T07:09:30.436Z,8
2017-01-03T07:10:41.132Z,12
2017-01-03T07:11:51.432Z,12
2017-01-03T07:13:01.728Z,16
2017-01-03T07:14:12.036Z,12
2017-01-03T07:15:22.959Z,16
2017-01-03T07:16:33.659Z,16
2017-01-03T07:17:43.966Z,16
2017-01-03T07:18:53.873Z,20
2017-01-03T07:20:04.160Z,16
2017-01-03T07:21:14.077Z,24
2017-01-03T07:22:24.402Z,24
2017-01-03T07:23:35.090Z,24
2017-01-03T07:24:44.209Z,36
2017-01-03T07:25:54.507Z,32
2017-01-03T07:27:04.410Z,40
2017-01-03T07:28:14.739Z,40
2017-01-03T07:29:24.639Z,44
2017-01-03T07:30:34.159Z,52
2017-01-03T07:31:44.860Z,48
2017-01-03T07:32:55.165Z,44
2017-01-03T07:34:05.453Z,60
2017-01-03T07:35:16.145Z,60
2017-01-03T07:36:26.035Z,64
2017-01-03T07:37:36.744Z,60
2017-01-03T07:38:47.037Z,68
2017-01-03T07:39:57.371Z,64
2017-01-03T07:41:08.053Z,68
2017-01-03T07:42:17.565Z,60
2017-01-03T07:43:27.861Z,60
2017-01-03T07:44:37.372Z,60
2017-01-03T07:45:48.081Z,64
2017-01-03T07:46:58.386Z,76
2017-01-03T07:48:09.086Z,76
2017-01-03T07:49:18.591Z,88
2017-01-03T07:50:28.889Z,132
2017-01-03T07:51:39.174Z,104
2017-01-03T07:52:49.089Z,128
2017-01-03T07:53:59.383Z,116
2017-01-03T07:55:09.287Z,112
2017-01-03T07:56:19.633Z,108
2017-01-03T07:57:29.532Z,136
2017-01-03T07:58:39.436Z,144
2017-01-03T07:59:49.743Z,140
2017-01-03T08:00:59.654Z,168
2017-01-03T08:02:09.160Z,164
2017-01-03T08:03:19.453Z,144
2017-01-03T08:04:30.132Z,136
2017-01-03T08:05:40.031Z,164
2017-01-03T08:06:49.926Z,136
2017-01-03T08:08:00.624Z,128
2017-01-03T08:09:10.545Z,132
2017-01-03T08:10:20.849Z,144
2017-01-03T08:11:31.540Z,132
2017-01-03T08:12:41.849Z,124
2017-01-03T08:13:52.542Z,148
2017-01-03T08:15:03.237Z,152
2017-01-03T08:16:13.156Z,144
2017-01-03T08:17:23.064Z,156
2017-01-03T08:18:33.374Z,156
2017-01-03T08:19:43.297Z,160
2017-01-03T08:20:52.813Z,176
2017-01-03T08:22:03.500Z,172
2017-01-03T08:23:13.429Z,188
2017-01-03T08:24:23.387Z,188
2017-01-03T08:25:34.071Z,204
2017-01-03T08:26:43.178Z,192
2017-01-03T08:27:53.492Z,244
2017-01-03T08:29:04.186Z,272
2017-01-03T08:30:14.489Z,268
2017-01-03T08:31:24.401Z,240
2017-01-03T08:32:34.716Z,252
2017-01-03T08:33:45.014Z,244
2017-01-03T08:34:55.318Z,264
2017-01-03T08:36:05.632Z,292
2017-01-03T08:37:15.937Z,276
2017-01-03T08:38:26.635Z,256
2017-01-03T08:39:36.534Z,288
2017-01-03T08:40:47.237Z,296
2017-01-03T08:41:57.923Z,272
2017-01-03T08:43:08.229Z,256
2017-01-03T08:44:18.589Z,252
2017-01-03T08:45:28.525Z,236
2017-01-03T08:46:38.910Z,252
2017-01-03T08:47:49.253Z,280
2017-01-03T08:48:59.547Z,272
2017-01-03T08:50:09.862Z,320
2017-01-03T08:51:20.161Z,340
2017-01-03T08:52:30.475Z,340
2017-01-03T08:53:41.172Z,308
2017-01-03T08:54:51.865Z,328
2017-01-03T08:56:02.175Z,280
2017-01-03T08:57:12.477Z,244
2017-01-03T08:58:22.813Z,240
2017-01-03T08:59:32.719Z,228
2017-01-03T09:00:42.222Z,248
2017-01-03T09:01:52.119Z,264
2017-01-03T09:03:02.031Z,312
2017-01-03T09:04:12.371Z,312
2017-01-03T09:05:23.097Z,312
2017-01-03T09:06:33.407Z,368
2017-01-03T09:07:43.727Z,368
2017-01-03T09:08:54.023Z,304
2017-01-03T09:10:03.932Z,332
2017-01-03T09:11:13.873Z,388
2017-01-03T09:12:24.172Z,364
2017-01-03T09:13:34.092Z,364
2017-01-03T09:14:43.998Z,376
2017-01-03T09:15:54.703Z,356
2017-01-03T09:17:05.008Z,348
2017-01-03T09:18:15.696Z,368
2017-01-03T09:19:25.599Z,416
2017-01-03T09:20:35.901Z,404
2017-01-03T09:21:45.801Z,372
2017-01-03T09:22:55.748Z,432
2017-01-03T09:24:06.095Z,392
2017-01-03T09:25:16.004Z,360
2017-01-03T09:26:25.522Z,408
2017-01-03T09:27:35.437Z,364
2017-01-03T09:28:45.353Z,352
2017-01-03T09:29:55.273Z,340
2017-01-03T09:31:05.988Z,324
2017-01-03T09:32:16.692Z,388
2017-01-03T09:33:26.241Z,396
2017-01-03T09:34:36.945Z,384
2017-01-03T09:35:46.864Z,416
2017-01-03T09:36:57.584Z,336
2017-01-03T09:38:07.906Z,460
2017-01-03T09:39:18.222Z,396
2017-01-03T09:40:28.548Z,396
2017-01-03T09:41:38.847Z,444
2017-01-03T09:42:49.168Z,508
2017-01-03T09:43:59.869Z,524
2017-01-03T09:45:09.777Z,484
2017-01-03T09:46:20.078Z,428
2017-01-03T09:47:30.770Z,508
2017-01-03T09:48:40.701Z,432
2017-01-03T09:49:51.386Z,404
2017-01-03T09:51:01.700Z,440
2017-01-03T09:52:11.984Z,404
2017-01-03T09:53:22.684Z,424
2017-01-03T09:54:33.790Z,556
2017-01-03T09:55:44.101Z,548
2017-01-03T09:56:54.013Z,628
2017-01-03T09:58:04.317Z,572
2017-01-03T09:59:13.835Z,636
2017-01-03T10:00:24.545Z,540
2017-01-03T10:01:34.847Z,544
2017-01-03T10:02:44.752Z,488
2017-01-03T10:03:55.046Z,500
2017-01-03T10:05:05.363Z,552
2017-01-03T10:06:15.673Z,568
2017-01-03T10:07:26.020Z,496
2017-01-03T10:08:36.314Z,512
2017-01-03T10:09:46.221Z,508
2017-01-03T10:10:56.528Z,492
2017-01-03T10:12:07.244Z,564
2017-01-03T10:13:17.579Z,480
2017-01-03T10:14:27.473Z,528
2017-01-03T10:15:38.172Z,576
2017-01-03T10:16:48.864Z,504
2017-01-03T10:17:59.571Z,592
2017-01-03T10:19:09.894Z,612
2017-01-03T10:20:20.186Z,696
2017-01-03T10:21:30.492Z,800
2017-01-03T10:22:40.410Z,800
2017-01-03T10:23:50.324Z,720
2017-01-03T10:25:00.637Z,584
2017-01-03T10:26:10.956Z,500
2017-01-03T10:27:21.242Z,588
2017-01-03T10:28:31.544Z,616
2017-01-03T10:29:42.252Z,648
2017-01-03T10:30:52.938Z,628
2017-01-03T10:32:03.234Z,780
2017-01-03T10:33:13.548Z,892
2017-01-03T10:34:24.231Z,632
2017-01-03T10:35:33.746Z,584
2017-01-03T10:36:43.651Z,624
2017-01-03T10:37:53.963Z,696
2017-01-03T10:39:04.280Z,744
2017-01-03T10:40:13.391Z,728
2017-01-03T10:41:24.097Z,732
2017-01-03T10:42:34.404Z,824
2017-01-03T10:43:44.714Z,992
2017-01-03T10:44:55.417Z,1144
2017-01-03T10:46:06.122Z,900
2017-01-03T10:47:16.436Z,912
2017-01-03T10:48:25.990Z,860
2017-01-03T10:49:36.694Z,1160
2017-01-03T10:50:47.000Z,976
2017-01-03T10:51:56.894Z,1080
2017-01-03T10:53:06.412Z,1220
2017-01-03T10:54:16.710Z,960
2017-01-03T10:55:27.016Z,984
2017-01-03T10:56:36.923Z,772
2017-01-03T10:57:47.224Z,736
2017-01-03T10:58:57.517Z,748
2017-01-03T11:00:07.846Z,668
2017-01-03T11:01:18.539Z,744
2017-01-03T11:02:28.053Z,688
2017-01-03T11:03:38.351Z,664
2017-01-03T11:04:48.656Z,732
2017-01-03T11:05:58.565Z,640
2017-01-03T11:07:08.884Z,696
2017-01-03T11:08:19.201Z,800
2017-01-03T11:09:29.904Z,680
2017-01-03T11:10:40.645Z,624
2017-01-03T11:11:50.569Z,624
2017-01-03T11:13:01.268Z,704
2017-01-03T11:14:11.171Z,652
2017-01-03T11:15:21.868Z,584
2017-01-03T11:16:32.159Z,848
2017-01-03T11:17:42.864Z,816
2017-01-03T11:18:53.567Z,872
2017-01-03T11:20:03.858Z,740
2017-01-03T11:21:14.556Z,800
2017-01-03T11:22:25.258Z,808
2017-01-03T11:23:34.762Z,760
2017-01-03T11:24:44.669Z,900
2017-01-03T11:25:54.972Z,1024
2017-01-03T11:27:05.695Z,1192
2017-01-03T11:28:15.209Z,792
2017-01-03T11:29:25.510Z,612
2017-01-03T11:30:36.215Z,712
2017-01-03T11:31:46.133Z,668
2017-01-03T11:32:56.844Z,748
2017-01-03T11:34:07.542Z,712
2017-01-03T11:35:17.459Z,656
2017-01-03T11:36:28.168Z,696
2017-01-03T11:37:38.869Z,868
2017-01-03T11:38:49.177Z,712
2017-01-03T11:39:59.486Z,608
2017-01-03T11:41:10.190Z,644
2017-01-03T11:42:20.898Z,692
2017-01-03T11:43:31.209Z,688
2017-01-03T11:44:41.520Z,804
2017-01-03T11:45:51.038Z,736
2017-01-03T11:47:01.333Z,644
2017-01-03T11:48:11.637Z,524
2017-01-03T11:49:21.933Z,496
2017-01-03T11:50:32.255Z,544
2017-01-03T11:51:42.564Z,624
2017-01-03T11:52:52.861Z,664
2017-01-03T11:54:02.806Z,604
2017-01-03T11:55:12.908Z,724
2017-01-03T11:56:23.604Z,764
2017-01-03T11:57:33.515Z,844
2017-01-03T11:58:43.431Z,648
2017-01-03T11:59:53.728Z,912
2017-01-03T12:01:04.430Z,764
2017-01-03T12:02:15.142Z,1120
2017-01-03T12:03:25.045Z,1000
2017-01-03T12:04:35.783Z,796
2017-01-03T12:05:45.685Z,736
2017-01-03T12:06:55.993Z,844
2017-01-03T12:08:06.692Z,1160
2017-01-03T12:09:16.205Z,1092
2017-01-03T12:10:26.505Z,1000
2017-01-03T12:11:36.870Z,872
2017-01-03T12:12:47.564Z,772
2017-01-03T12:13:57.092Z,880
2017-01-03T12:15:07.431Z,904
2017-01-03T12:16:17.979Z,976
2017-01-03T12:17:27.886Z,928
2017-01-03T12:18:38.197Z,764
2017-01-03T12:19:48.925Z,664
2017-01-03T12:20:59.229Z,576
2017-01-03T12:22:09.135Z,688
2017-01-03T12:23:19.828Z,676
2017-01-03T12:24:29.340Z,576
2017-01-03T12:25:40.043Z,568
2017-01-03T12:26:50.354Z,564
2017-01-03T12:28:00.669Z,584
2017-01-03T12:29:10.972Z,548
2017-01-03T12:30:20.876Z,676
2017-01-03T12:31:31.171Z,492
2017-01-03T12:32:41.470Z,436
2017-01-03T12:33:52.160Z,424
2017-01-03T12:35:02.867Z,500
2017-01-03T12:36:13.568Z,448
2017-01-03T12:37:23.872Z,416
2017-01-03T12:38:34.567Z,480
2017-01-03T12:39:44.890Z,516
2017-01-03T12:40:55.196Z,492
2017-01-03T12:42:05.949Z,576
2017-01-03T12:43:16.267Z,488
2017-01-03T12:44:26.179Z,456
2017-01-03T12:45:36.962Z,520
2017-01-03T12:46:47.281Z,476
2017-01-03T12:47:57.972Z,512
2017-01-03T12:49:08.274Z,616
2017-01-03T12:50:19.000Z,564
2017-01-03T12:51:29.694Z,560
2017-01-03T12:52:39.594Z,536
2017-01-03T12:53:49.893Z,484
2017-01-03T12:55:00.636Z,488
2017-01-03T12:56:10.555Z,488
2017-01-03T12:57:21.252Z,528
2017-01-03T12:58:31.953Z,468
2017-01-03T12:59:42.281Z,460
2017-01-03T13:00:52.196Z,492
2017-01-03T13:02:02.886Z,408
2017-01-03T13:03:13.620Z,392
2017-01-03T13:04:23.921Z,412
2017-01-03T13:05:33.823Z,492
2017-01-03T13:06:44.124Z,444
2017-01-03T13:07:54.450Z,516
2017-01-03T13:09:04.360Z,424
2017-01-03T13:10:15.099Z,444
2017-01-03T13:11:25.042Z,392
2017-01-03T13:12:35.756Z,500
2017-01-03T13:13:46.092Z,436
2017-01-03T13:14:56.779Z,472
2017-01-03T13:16:06.288Z,524
2017-01-03T13:17:16.597Z,416
2017-01-03T13:18:27.305Z,476
2017-01-03T13:19:37.216Z,436
2017-01-03T13:20:47.919Z,436
2017-01-03T13:21:58.219Z,432
2017-01-03T13:23:08.141Z,412
2017-01-03T13:24:18.838Z,400
2017-01-03T13:25:28.361Z,392
2017-01-03T13:26:39.053Z,396
2017-01-03T13:27:48.970Z,544
2017-01-03T13:28:58.874Z,464
2017-01-03T13:30:08.811Z,392
2017-01-03T13:31:18.729Z,404
2017-01-03T13:32:29.030Z,440
2017-01-03T13:33:39.968Z,512
2017-01-03T13:34:49.888Z,420
2017-01-03T13:36:00.579Z,336
2017-01-03T13:37:10.500Z,324
2017-01-03T13:38:20.429Z,292
2017-01-03T13:39:31.108Z,292
2017-01-03T13:40:42.040Z,352
2017-01-03T13:41:51.960Z,316
2017-01-03T13:43:01.497Z,348
2017-01-03T13:44:12.211Z,316
2017-01-03T13:45:22.517Z,376
2017-01-03T13:46:32.821Z,440
2017-01-03T13:47:43.532Z,320
2017-01-03T13:48:53.451Z,340
2017-01-03T13:50:04.147Z,312
2017-01-03T13:51:13.264Z,304
2017-01-03T13:52:23.174Z,392
2017-01-03T13:53:33.895Z,292
2017-01-03T13:54:44.227Z,308
2017-01-03T13:55:54.922Z,292
2017-01-03T13:57:05.222Z,244
2017-01-03T13:58:15.523Z,248
2017-01-03T13:59:25.810Z,304
2017-01-03T14:00:36.508Z,16
2017-01-03T14:01:46.804Z,4
2017-01-03T14:02:57.502Z,4
2017-01-03T14:04:07.408Z,4
2017-01-03T14:05:18.103Z,4
2017-01-03T14:06:28.400Z,4
2017-01-03T14:07:38.695Z,4
2017-01-03T14:08:49.008Z,4
2017-01-03T14:09:58.511Z,4
2017-01-03T14:11:09.252Z,4
2017-01-03T14:12:19.565Z,4
2017-01-03T14:13:29.877Z,4
2017-01-03T14:14:40.588Z,4
2017-01-03T14:15:50.890Z,4
2017-01-03T14:17:01.587Z,4
2017-01-03T14:18:11.901Z,4
2017-01-03T14:19:22.682Z,4
2017-01-03T14:20:33.380Z,4
2017-01-03T14:21:43.687Z,4
2017-01-03T14:22:54.413Z,4
2017-01-03T14:24:05.122Z,4
2017-01-03T14:25:15.907Z,4
2017-01-03T14:26:26.217Z,4
2017-01-03T14:27:36.935Z,4
2017-01-03T14:28:46.855Z,4
2017-01-03T14:29:57.172Z,0
2017-01-03T14:31:07.551Z,0
2017-01-03T14:32:17.522Z,0
2017-01-03T14:33:28.250Z,4
2017-01-03T14:34:38.176Z,4
2017-01-03T14:35:48.573Z,4
2017-01-03T14:36:58.919Z,4
2017-01-03T14:38:09.656Z,4
2017-01-03T14:39:20.372Z,4
2017-01-03T14:40:31.086Z,4
2017-01-03T14:41:41.391Z,0
2017-01-03T14:42:52.091Z,0
2017-01-03T14:44:02.008Z,0
2017-01-03T14:45:11.973Z,0
2017-01-03T14:46:22.711Z,0
2017-01-03T14:47:33.075Z,0
2017-01-03T14:48:43.409Z,0
2017-01-03T14:49:54.171Z,0
2017-01-03T14:51:04.502Z,0
2017-01-03T14:52:15.263Z,0
2017-01-03T14:53:25.160Z,0
2017-01-03T14:54:35.473Z,0
2017-01-03T14:55:46.202Z,0
2017-01-03T14:56:56.132Z,0
2017-01-03T14:58:06.452Z,0
2017-01-03T14:59:16.758Z,0
2017-01-03T15:00:27.218Z,0
2017-01-03T15:01:37.207Z,0
2017-01-03T15:02:47.504Z,0
2017-01-03T15:03:57.043Z,0
2017-01-03T15:05:07.044Z,0
2017-01-03T15:06:17.560Z,0
2017-01-03T15:07:28.330Z,0
2017-01-03T15:08:38.655Z,0
2017-01-03T15:09:47.816Z,0
2017-01-03T15:10:57.755Z,0
2017-01-03T15:12:08.077Z,0
2017-01-03T15:13:18.802Z,0
2017-01-03T15:14:29.502Z,0
2017-01-03T15:15:39.823Z,0
2017-01-03T15:16:50.136Z,0
2017-01-03T15:18:01.029Z,0
2017-01-03T15:19:11.592Z,0
2017-01-03T15:20:22.001Z,0
2017-01-03T15:21:32.715Z,0
2017-01-03T15:22:43.618Z,0
2017-01-03T15:23:54.051Z,0
2017-01-03T15:25:04.532Z,0
2017-01-03T15:26:14.545Z,0
2017-01-03T15:27:25.374Z,0
2017-01-03T15:28:36.134Z,0
2017-01-03T15:29:47.243Z,0
2017-01-03T15:30:58.033Z,0
2017-01-03T15:32:08.955Z,0
2017-01-03T15:33:19.799Z,0
2017-01-03T15:34:30.692Z,0
2017-01-03T15:35:41.294Z,0
2017-01-03T15:36:52.126Z,0
2017-01-03T15:38:03.209Z,0
2017-01-03T15:39:13.842Z,0
2017-01-03T15:40:25.017Z,0
2017-01-03T15:41:35.611Z,0
2017-01-03T15:42:46.693Z,0
2017-01-03T15:43:57.706Z,0
2017-01-03T15:45:08.442Z,0
2017-01-03T15:46:19.739Z,0
2017-01-03T15:47:30.867Z,0
2017-01-03T15:48:41.738Z,0
2017-01-03T15:49:52.072Z,0
2017-01-03T15:51:02.724Z,0
2017-01-03T15:52:13.326Z,0
2017-01-03T15:53:24.422Z,0
2017-01-03T15:54:35.374Z,0
2017-01-03T15:55:46.265Z,0
2017-01-03T15:56:56.334Z,0
2017-01-03T15:58:06.467Z,0
2017-01-03T15:59:17.835Z,0
2017-01-03T16:00:28.814Z,0
2017-01-03T16:01:39.500Z,0
2017-01-03T16:02:50.328Z,0
2017-01-03T16:04:00.092Z,0
2017-01-03T16:05:11.660Z,0
2017-01-03T16:06:22.039Z,0
2017-01-03T16:07:32.434Z,0
2017-01-03T16:08:43.388Z,0
2017-01-03T16:09:54.894Z,0
2017-01-03T16:11:05.913Z,0
2017-01-03T16:12:16.909Z,0
2017-01-03T16:13:27.778Z,0
2017-01-03T16:14:38.975Z,0
2017-01-03T16:15:50.006Z,0
2017-01-03T16:17:01.643Z,0
2017-01-03T16:18:12.303Z,0
2017-01-03T16:19:24.291Z,0
2017-01-03T16:20:35.050Z,0
2017-01-03T16:21:46.778Z,0
2017-01-03T16:22:57.916Z,0
2017-01-03T16:24:09.778Z,0
2017-01-03T16:25:21.075Z,0
2017-01-03T16:26:32.685Z,0
2017-01-03T16:27:43.720Z,0
2017-01-03T16:28:55.459Z,0
2017-01-03T16:30:07.071Z,0
2017-01-03T16:31:17.873Z,0
2017-01-03T16:32:29.073Z,0
2017-01-03T16:33:40.663Z,0
2017-01-03T16:34:52.105Z,0
2017-01-03T16:36:02.620Z,0
2017-01-03T16:37:13.540Z,0
2017-01-03T16:38:25.044Z,0
2017-01-03T16:39:36.413Z,0
2017-01-03T16:40:47.974Z,0
2017-01-03T16:41:58.635Z,0
2017-01-03T16:43:10.633Z,0
2017-01-03T16:44:21.826Z,0
2017-01-03T16:45:33.237Z,0
2017-01-03T16:46:44.882Z,0
2017-01-03T16:47:56.265Z,0
2017-01-03T16:49:07.911Z,0
2017-01-03T16:50:19.415Z,0